sensor_id;sensor_type;location;lat;lon;timestamp;P1;P2;P0
76049;PMS7003;64967;50.234;19.224;2023-05-10T00:02:08;5.25;4.00;3.00
76049;PMS7003;64967;50.234;19.224;2023-05-10T00:04:39;6.00;5.00;4.00
76049;PMS7003;64967;50.234;19.224;2023-05-10T00:10:29;5.25;4.25;3.75
76049;PMS7003;64967;50.234;19.224;2023-05-10T00:13:24;7.50;7.00;4.75
76049;PMS7003;64967;50.234;19.224;2023-05-10T00:16:02;4.00;4.00;3.00
76049;PMS7003;64967;50.234;19.224;2023-05-10T00:18:29;6.00;5.00;4.00
76049;PMS7003;64967;50.234;19.224;2023-05-10T00:20:56;5.00;5.00;4.00
76049;PMS7003;64967;50.234;19.224;2023-05-10T00:23:23;5.00;4.00;3.25
76049;PMS7003;64967;50.234;19.224;2023-05-10T00:25:50;7.50;6.75;3.75
76049;PMS7003;64967;50.234;19.224;2023-05-10T00:28:17;5.50;4.50;3.50
76049;PMS7003;64967;50.234;19.224;2023-05-10T00:30:44;4.00;3.00;2.75
76049;PMS7003;64967;50.234;19.224;2023-05-10T00:33:11;7.50;7.00;4.00
76049;PMS7003;64967;50.234;19.224;2023-05-10T00:35:39;4.00;3.50;3.00
76049;PMS7003;64967;50.234;19.224;2023-05-10T00:38:06;4.00;3.00;3.00
76049;PMS7003;64967;50.234;19.224;2023-05-10T00:40:33;3.00;2.00;2.00
76049;PMS7003;64967;50.234;19.224;2023-05-10T00:43:03;3.25;3.25;2.50
76049;PMS7003;64967;50.234;19.224;2023-05-10T00:45:31;2.00;2.00;1.00
76049;PMS7003;64967;50.234;19.224;2023-05-10T00:48:00;8.50;8.50;7.50
76049;PMS7003;64967;50.234;19.224;2023-05-10T00:50:29;7.00;5.00;4.00
76049;PMS7003;64967;50.234;19.224;2023-05-10T00:53:00;9.25;8.00;6.00
76049;PMS7003;64967;50.234;19.224;2023-05-10T00:55:29;12.50;10.00;8.00
76049;PMS7003;64967;50.234;19.224;2023-05-10T00:57:57;8.00;6.00;5.25
76049;PMS7003;64967;50.234;19.224;2023-05-10T01:00:24;4.00;4.00;3.00
76049;PMS7003;64967;50.234;19.224;2023-05-10T01:02:53;5.50;4.75;3.50
76049;PMS7003;64967;50.234;19.224;2023-05-10T01:05:20;4.00;4.00;3.00
76049;PMS7003;64967;50.234;19.224;2023-05-10T01:07:53;10.00;8.50;6.00
76049;PMS7003;64967;50.234;19.224;2023-05-10T01:10:34;9.00;5.25;4.00
76049;PMS7003;64967;50.234;19.224;2023-05-10T01:13:18;6.75;6.75;5.00
76049;PMS7003;64967;50.234;19.224;2023-05-10T01:16:17;8.00;7.25;5.25
76049;PMS7003;64967;50.234;19.224;2023-05-10T01:19:17;4.25;4.25;3.50
76049;PMS7003;64967;50.234;19.224;2023-05-10T01:28:26;9.00;7.75;7.00
76049;PMS7003;64967;50.234;19.224;2023-05-10T01:30:56;12.50;10.50;8.25
76049;PMS7003;64967;50.234;19.224;2023-05-10T01:34:00;9.00;8.00;7.00
76049;PMS7003;64967;50.234;19.224;2023-05-10T01:41:41;8.50;7.25;5.25
76049;PMS7003;64967;50.234;19.224;2023-05-10T01:44:28;9.00;8.00;7.00
76049;PMS7003;64967;50.234;19.224;2023-05-10T01:47:12;8.00;8.00;6.00
76049;PMS7003;64967;50.234;19.224;2023-05-10T01:49:46;13.50;9.25;7.75
76049;PMS7003;64967;50.234;19.224;2023-05-10T01:52:17;9.50;8.00;7.00
76049;PMS7003;64967;50.234;19.224;2023-05-10T01:54:49;13.00;12.00;8.25
76049;PMS7003;64967;50.234;19.224;2023-05-10T01:57:22;12.50;10.25;8.00
76049;PMS7003;64967;50.234;19.224;2023-05-10T01:59:54;10.75;9.00;7.00
76049;PMS7003;64967;50.234;19.224;2023-05-10T02:02:22;8.75;8.25;7.00
76049;PMS7003;64967;50.234;19.224;2023-05-10T02:04:52;11.50;9.75;7.00
76049;PMS7003;64967;50.234;19.224;2023-05-10T02:07:21;9.75;9.00;8.00
76049;PMS7003;64967;50.234;19.224;2023-05-10T02:09:50;7.00;6.00;6.00
76049;PMS7003;64967;50.234;19.224;2023-05-10T02:12:18;7.00;4.50;3.00
76049;PMS7003;64967;50.234;19.224;2023-05-10T02:14:47;7.50;6.00;6.00
76049;PMS7003;64967;50.234;19.224;2023-05-10T02:17:16;6.25;6.00;4.00
76049;PMS7003;64967;50.234;19.224;2023-05-10T02:19:45;7.00;6.00;4.00
76049;PMS7003;64967;50.234;19.224;2023-05-10T02:22:13;6.00;4.00;3.50
76049;PMS7003;64967;50.234;19.224;2023-05-10T02:24:42;4.50;3.00;2.25
76049;PMS7003;64967;50.234;19.224;2023-05-10T02:27:11;5.25;3.25;3.00
76049;PMS7003;64967;50.234;19.224;2023-05-10T02:29:40;6.75;6.00;4.25
76049;PMS7003;64967;50.234;19.224;2023-05-10T02:32:08;3.50;3.50;2.00
76049;PMS7003;64967;50.234;19.224;2023-05-10T02:34:38;4.75;3.25;3.00
76049;PMS7003;64967;50.234;19.224;2023-05-10T02:37:05;11.25;9.00;7.00
76049;PMS7003;64967;50.234;19.224;2023-05-10T02:39:33;6.75;5.00;3.50
76049;PMS7003;64967;50.234;19.224;2023-05-10T02:42:01;11.75;11.00;8.00
76049;PMS7003;64967;50.234;19.224;2023-05-10T02:44:28;16.00;13.75;11.00
76049;PMS7003;64967;50.234;19.224;2023-05-10T02:46:57;7.75;7.00;6.00
76049;PMS7003;64967;50.234;19.224;2023-05-10T02:49:25;7.00;6.00;5.75
76049;PMS7003;64967;50.234;19.224;2023-05-10T02:51:55;10.25;10.00;7.00
76049;PMS7003;64967;50.234;19.224;2023-05-10T02:54:27;7.00;6.00;5.25
76049;PMS7003;64967;50.234;19.224;2023-05-10T02:56:58;5.75;5.00;3.00
76049;PMS7003;64967;50.234;19.224;2023-05-10T02:59:29;6.00;5.25;4.50
76049;PMS7003;64967;50.234;19.224;2023-05-10T03:01:57;8.25;6.50;5.25
76049;PMS7003;64967;50.234;19.224;2023-05-10T03:04:26;3.00;3.00;2.50
76049;PMS7003;64967;50.234;19.224;2023-05-10T03:06:53;3.00;3.00;3.00
76049;PMS7003;64967;50.234;19.224;2023-05-10T03:09:20;3.00;3.00;2.50
76049;PMS7003;64967;50.234;19.224;2023-05-10T03:12:52;2.00;2.00;1.50
76049;PMS7003;64967;50.234;19.224;2023-05-10T03:18:15;1.25;1.00;1.00
76049;PMS7003;64967;50.234;19.224;2023-05-10T03:20:49;6.50;6.00;5.00
76049;PMS7003;64967;50.234;19.224;2023-05-10T03:26:07;10.50;8.50;6.75
76049;PMS7003;64967;50.234;19.224;2023-05-10T03:28:35;10.50;10.00;7.25
76049;PMS7003;64967;50.234;19.224;2023-05-10T03:31:03;5.00;5.00;3.00
76049;PMS7003;64967;50.234;19.224;2023-05-10T03:33:32;11.75;11.00;8.00
76049;PMS7003;64967;50.234;19.224;2023-05-10T03:35:59;7.00;6.00;5.00
76049;PMS7003;64967;50.234;19.224;2023-05-10T03:38:26;7.50;5.75;4.00
76049;PMS7003;64967;50.234;19.224;2023-05-10T03:40:55;5.75;5.00;4.00
76049;PMS7003;64967;50.234;19.224;2023-05-10T03:43:22;5.25;5.25;3.00
76049;PMS7003;64967;50.234;19.224;2023-05-10T03:45:50;3.00;2.00;2.00
76049;PMS7003;64967;50.234;19.224;2023-05-10T03:48:17;1.00;1.00;1.00
76049;PMS7003;64967;50.234;19.224;2023-05-10T03:50:44;2.00;1.00;1.00
76049;PMS7003;64967;50.234;19.224;2023-05-10T03:53:11;5.25;3.00;2.25
76049;PMS7003;64967;50.234;19.224;2023-05-10T03:55:38;3.50;3.00;3.00
76049;PMS7003;64967;50.234;19.224;2023-05-10T03:58:05;2.75;2.75;2.00
76049;PMS7003;64967;50.234;19.224;2023-05-10T04:00:32;3.50;2.50;2.00
76049;PMS7003;64967;50.234;19.224;2023-05-10T04:02:59;7.00;7.00;6.75
76049;PMS7003;64967;50.234;19.224;2023-05-10T04:05:27;7.00;6.25;5.50
76049;PMS7003;64967;50.234;19.224;2023-05-10T04:07:54;6.00;3.75;3.00
76049;PMS7003;64967;50.234;19.224;2023-05-10T04:10:21;11.50;8.00;6.00
76049;PMS7003;64967;50.234;19.224;2023-05-10T04:12:48;9.25;8.75;6.00
76049;PMS7003;64967;50.234;19.224;2023-05-10T04:15:15;6.50;6.00;5.00
76049;PMS7003;64967;50.234;19.224;2023-05-10T04:17:42;6.00;5.00;3.50
76049;PMS7003;64967;50.234;19.224;2023-05-10T04:20:09;6.25;4.75;3.00
76049;PMS7003;64967;50.234;19.224;2023-05-10T04:22:37;11.50;9.50;7.00
76049;PMS7003;64967;50.234;19.224;2023-05-10T04:25:04;13.00;8.25;7.00
76049;PMS7003;64967;50.234;19.224;2023-05-10T04:27:32;8.50;8.00;6.50
76049;PMS7003;64967;50.234;19.224;2023-05-10T04:29:59;13.50;11.75;8.50
76049;PMS7003;64967;50.234;19.224;2023-05-10T04:32:26;11.00;8.25;6.50
76049;PMS7003;64967;50.234;19.224;2023-05-10T04:34:54;10.25;8.25;7.50
76049;PMS7003;64967;50.234;19.224;2023-05-10T04:37:21;13.25;10.50;8.00
76049;PMS7003;64967;50.234;19.224;2023-05-10T04:39:49;12.75;8.50;7.00
76049;PMS7003;64967;50.234;19.224;2023-05-10T04:42:16;9.75;9.25;7.75
76049;PMS7003;64967;50.234;19.224;2023-05-10T04:44:43;15.75;13.25;8.50
76049;PMS7003;64967;50.234;19.224;2023-05-10T04:47:10;11.00;10.25;8.00
76049;PMS7003;64967;50.234;19.224;2023-05-10T04:49:38;8.00;8.00;6.25
76049;PMS7003;64967;50.234;19.224;2023-05-10T04:52:05;13.25;10.25;7.25
76049;PMS7003;64967;50.234;19.224;2023-05-10T04:54:32;8.75;7.00;4.75
76049;PMS7003;64967;50.234;19.224;2023-05-10T04:56:59;11.75;10.25;7.00
76049;PMS7003;64967;50.234;19.224;2023-05-10T04:59:26;13.75;10.75;7.75
76049;PMS7003;64967;50.234;19.224;2023-05-10T05:01:53;7.50;7.00;6.00
76049;PMS7003;64967;50.234;19.224;2023-05-10T05:04:20;7.25;6.50;5.50
76049;PMS7003;64967;50.234;19.224;2023-05-10T05:06:49;9.25;8.25;7.00
76049;PMS7003;64967;50.234;19.224;2023-05-10T05:09:19;9.50;8.50;7.00
76049;PMS7003;64967;50.234;19.224;2023-05-10T05:11:46;8.50;8.25;7.00
76049;PMS7003;64967;50.234;19.224;2023-05-10T05:14:13;7.75;6.25;6.00
76049;PMS7003;64967;50.234;19.224;2023-05-10T05:16:40;10.75;10.00;7.25
76049;PMS7003;64967;50.234;19.224;2023-05-10T05:19:07;9.00;8.00;6.25
76049;PMS7003;64967;50.234;19.224;2023-05-10T05:21:34;8.00;8.00;6.33
76049;PMS7003;64967;50.234;19.224;2023-05-10T05:24:01;9.00;8.67;7.00
76049;PMS7003;64967;50.234;19.224;2023-05-10T05:26:28;8.00;7.00;6.33
76049;PMS7003;64967;50.234;19.224;2023-05-10T05:28:55;7.00;7.00;6.00
76049;PMS7003;64967;50.234;19.224;2023-05-10T05:31:22;7.00;6.67;6.00
76049;PMS7003;64967;50.234;19.224;2023-05-10T05:33:49;6.67;6.33;6.00
76049;PMS7003;64967;50.234;19.224;2023-05-10T05:36:16;10.33;9.33;7.00
76049;PMS7003;64967;50.234;19.224;2023-05-10T05:38:43;7.33;7.00;5.67
76049;PMS7003;64967;50.234;19.224;2023-05-10T05:41:10;6.67;6.33;5.67
76049;PMS7003;64967;50.234;19.224;2023-05-10T05:43:37;6.00;5.67;5.00
76049;PMS7003;64967;50.234;19.224;2023-05-10T05:46:04;7.33;7.33;6.00
76049;PMS7003;64967;50.234;19.224;2023-05-10T05:48:31;8.33;7.00;6.00
76049;PMS7003;64967;50.234;19.224;2023-05-10T05:51:00;7.67;7.00;5.33
76049;PMS7003;64967;50.234;19.224;2023-05-10T05:53:27;8.00;7.67;7.00
76049;PMS7003;64967;50.234;19.224;2023-05-10T05:55:54;6.00;6.00;5.00
76049;PMS7003;64967;50.234;19.224;2023-05-10T05:58:22;5.67;5.67;5.00
76049;PMS7003;64967;50.234;19.224;2023-05-10T06:00:50;7.00;6.00;6.00
76049;PMS7003;64967;50.234;19.224;2023-05-10T06:03:20;7.67;7.00;5.67
76049;PMS7003;64967;50.234;19.224;2023-05-10T06:05:48;6.00;6.00;6.00
76049;PMS7003;64967;50.234;19.224;2023-05-10T06:08:15;7.00;7.00;6.00
76049;PMS7003;64967;50.234;19.224;2023-05-10T06:10:42;7.00;7.00;6.00
76049;PMS7003;64967;50.234;19.224;2023-05-10T06:13:09;5.00;4.67;4.33
76049;PMS7003;64967;50.234;19.224;2023-05-10T06:15:36;4.67;4.67;4.00
76049;PMS7003;64967;50.234;19.224;2023-05-10T06:18:03;8.00;6.00;5.00
76049;PMS7003;64967;50.234;19.224;2023-05-10T06:20:30;4.00;4.00;4.00
76049;PMS7003;64967;50.234;19.224;2023-05-10T06:22:58;4.67;4.33;4.00
76049;PMS7003;64967;50.234;19.224;2023-05-10T06:25:25;5.00;4.00;4.00
76049;PMS7003;64967;50.234;19.224;2023-05-10T06:27:52;4.00;4.00;3.33
76049;PMS7003;64967;50.234;19.224;2023-05-10T06:30:24;3.00;2.00;2.00
76049;PMS7003;64967;50.234;19.224;2023-05-10T06:32:55;6.33;4.67;4.00
76049;PMS7003;64967;50.234;19.224;2023-05-10T06:35:23;4.00;4.00;3.67
76049;PMS7003;64967;50.234;19.224;2023-05-10T06:37:50;3.00;3.00;3.00
76049;PMS7003;64967;50.234;19.224;2023-05-10T06:40:18;5.00;4.00;4.00
76049;PMS7003;64967;50.234;19.224;2023-05-10T06:42:45;4.00;4.00;3.33
76049;PMS7003;64967;50.234;19.224;2023-05-10T06:45:14;4.00;3.67;3.00
76049;PMS7003;64967;50.234;19.224;2023-05-10T06:47:42;3.33;3.00;2.00
76049;PMS7003;64967;50.234;19.224;2023-05-10T06:50:09;4.33;4.00;3.00
76049;PMS7003;64967;50.234;19.224;2023-05-10T06:52:37;3.00;3.00;3.00
76049;PMS7003;64967;50.234;19.224;2023-05-10T06:55:05;5.00;3.67;3.00
76049;PMS7003;64967;50.234;19.224;2023-05-10T06:57:32;4.00;4.00;3.00
76049;PMS7003;64967;50.234;19.224;2023-05-10T06:59:59;5.00;3.67;3.33
76049;PMS7003;64967;50.234;19.224;2023-05-10T07:02:26;3.00;3.00;2.67
76049;PMS7003;64967;50.234;19.224;2023-05-10T07:04:54;2.67;2.00;2.00
76049;PMS7003;64967;50.234;19.224;2023-05-10T07:07:21;5.67;4.00;3.00
76049;PMS7003;64967;50.234;19.224;2023-05-10T07:09:48;2.00;2.00;1.67
76049;PMS7003;64967;50.234;19.224;2023-05-10T07:12:16;1.67;1.67;1.00
76049;PMS7003;64967;50.234;19.224;2023-05-10T07:14:44;3.00;3.00;2.00
76049;PMS7003;64967;50.234;19.224;2023-05-10T07:17:11;3.00;3.00;2.00
76049;PMS7003;64967;50.234;19.224;2023-05-10T07:19:38;3.00;3.00;3.00
76049;PMS7003;64967;50.234;19.224;2023-05-10T07:22:05;2.00;2.00;2.00
76049;PMS7003;64967;50.234;19.224;2023-05-10T07:24:32;2.67;2.67;1.67
76049;PMS7003;64967;50.234;19.224;2023-05-10T07:26:59;2.00;2.00;1.00
76049;PMS7003;64967;50.234;19.224;2023-05-10T07:29:26;2.67;2.67;2.00
76049;PMS7003;64967;50.234;19.224;2023-05-10T07:31:54;4.00;4.00;2.33
76049;PMS7003;64967;50.234;19.224;2023-05-10T07:34:24;2.67;1.67;1.00
76049;PMS7003;64967;50.234;19.224;2023-05-10T07:36:51;2.67;2.67;1.67
76049;PMS7003;64967;50.234;19.224;2023-05-10T07:39:19;2.67;2.67;1.67
76049;PMS7003;64967;50.234;19.224;2023-05-10T07:41:53;6.33;3.33;2.67
76049;PMS7003;64967;50.234;19.224;2023-05-10T07:44:21;3.33;2.67;2.67
76049;PMS7003;64967;50.234;19.224;2023-05-10T07:46:48;3.67;3.33;2.67
76049;PMS7003;64967;50.234;19.224;2023-05-10T07:49:16;6.00;6.00;5.00
76049;PMS7003;64967;50.234;19.224;2023-05-10T07:51:43;5.67;5.00;4.00
76049;PMS7003;64967;50.234;19.224;2023-05-10T07:54:10;2.00;2.00;2.00
76049;PMS7003;64967;50.234;19.224;2023-05-10T07:56:37;4.00;3.00;3.00
76049;PMS7003;64967;50.234;19.224;2023-05-10T07:59:04;3.33;3.33;3.00
76049;PMS7003;64967;50.234;19.224;2023-05-10T08:01:35;3.00;3.00;2.67
76049;PMS7003;64967;50.234;19.224;2023-05-10T08:04:02;2.33;2.00;2.00
76049;PMS7003;64967;50.234;19.224;2023-05-10T08:06:29;3.33;3.00;3.00
76049;PMS7003;64967;50.234;19.224;2023-05-10T08:08:56;3.00;3.00;2.50
76049;PMS7003;64967;50.234;19.224;2023-05-10T08:11:24;1.67;1.33;1.00
76049;PMS7003;64967;50.234;19.224;2023-05-10T08:13:51;2.00;2.00;1.00
76049;PMS7003;64967;50.234;19.224;2023-05-10T08:16:18;3.00;2.00;2.00
76049;PMS7003;64967;50.234;19.224;2023-05-10T08:18:46;3.00;3.00;2.00
76049;PMS7003;64967;50.234;19.224;2023-05-10T08:21:16;2.33;2.33;2.00
76049;PMS7003;64967;50.234;19.224;2023-05-10T08:23:43;3.67;3.67;3.00
76049;PMS7003;64967;50.234;19.224;2023-05-10T08:26:10;3.00;3.00;3.00
76049;PMS7003;64967;50.234;19.224;2023-05-10T08:28:38;3.00;3.00;2.67
76049;PMS7003;64967;50.234;19.224;2023-05-10T08:31:05;4.33;4.00;4.00
76049;PMS7003;64967;50.234;19.224;2023-05-10T08:33:32;4.00;4.00;4.00
76049;PMS7003;64967;50.234;19.224;2023-05-10T08:35:59;2.00;2.00;2.00
76049;PMS7003;64967;50.234;19.224;2023-05-10T08:38:26;3.00;3.00;2.33
76049;PMS7003;64967;50.234;19.224;2023-05-10T08:40:54;4.00;3.00;3.00
76049;PMS7003;64967;50.234;19.224;2023-05-10T08:43:28;3.00;3.00;2.67
76049;PMS7003;64967;50.234;19.224;2023-05-10T08:45:56;2.00;2.00;2.00
76049;PMS7003;64967;50.234;19.224;2023-05-10T08:48:29;2.33;2.00;2.00
76049;PMS7003;64967;50.234;19.224;2023-05-10T08:50:58;3.67;3.67;3.33
76049;PMS7003;64967;50.234;19.224;2023-05-10T08:53:27;4.00;4.00;3.00
76049;PMS7003;64967;50.234;19.224;2023-05-10T08:55:57;4.67;3.67;3.00
76049;PMS7003;64967;50.234;19.224;2023-05-10T08:58:24;2.00;2.00;2.00
76049;PMS7003;64967;50.234;19.224;2023-05-10T09:00:52;3.00;3.00;3.00
76049;PMS7003;64967;50.234;19.224;2023-05-10T09:03:19;4.00;4.00;4.00
76049;PMS7003;64967;50.234;19.224;2023-05-10T09:05:47;4.33;4.33;4.00
76049;PMS7003;64967;50.234;19.224;2023-05-10T09:08:15;5.33;4.00;4.00
76049;PMS7003;64967;50.234;19.224;2023-05-10T09:10:43;3.00;3.00;2.00
76049;PMS7003;64967;50.234;19.224;2023-05-10T09:13:13;3.33;3.33;3.00
76049;PMS7003;64967;50.234;19.224;2023-05-10T09:15:43;4.00;4.00;3.00
76049;PMS7003;64967;50.234;19.224;2023-05-10T09:18:11;4.00;3.00;3.00
76049;PMS7003;64967;50.234;19.224;2023-05-10T09:20:39;3.00;3.00;2.67
76049;PMS7003;64967;50.234;19.224;2023-05-10T09:23:06;2.67;2.00;1.67
76049;PMS7003;64967;50.234;19.224;2023-05-10T09:25:33;2.67;2.67;2.00
76049;PMS7003;64967;50.234;19.224;2023-05-10T09:28:01;3.33;3.00;3.00
76049;PMS7003;64967;50.234;19.224;2023-05-10T09:30:29;4.67;4.00;3.00
76049;PMS7003;64967;50.234;19.224;2023-05-10T09:32:58;4.33;4.00;3.00
76049;PMS7003;64967;50.234;19.224;2023-05-10T09:35:26;3.00;2.00;2.00
76049;PMS7003;64967;50.234;19.224;2023-05-10T09:37:57;3.67;3.00;3.00
76049;PMS7003;64967;50.234;19.224;2023-05-10T09:40:27;2.67;2.67;2.00
76049;PMS7003;64967;50.234;19.224;2023-05-10T09:42:58;6.00;4.00;4.00
76049;PMS7003;64967;50.234;19.224;2023-05-10T09:45:31;6.00;5.00;4.00
76049;PMS7003;64967;50.234;19.224;2023-05-10T09:48:02;5.67;5.00;4.00
76049;PMS7003;64967;50.234;19.224;2023-05-10T09:50:30;4.00;4.00;3.00
76049;PMS7003;64967;50.234;19.224;2023-05-10T09:52:58;2.67;2.67;2.33
76049;PMS7003;64967;50.234;19.224;2023-05-10T09:58:02;2.67;2.67;2.00
76049;PMS7003;64967;50.234;19.224;2023-05-10T10:00:34;3.67;3.67;3.00
76049;PMS7003;64967;50.234;19.224;2023-05-10T10:03:14;6.00;5.33;4.67
76049;PMS7003;64967;50.234;19.224;2023-05-10T10:05:43;1.67;1.67;1.67
76049;PMS7003;64967;50.234;19.224;2023-05-10T10:08:12;2.00;2.00;2.00
76049;PMS7003;64967;50.234;19.224;2023-05-10T10:10:40;3.00;3.00;2.67
76049;PMS7003;64967;50.234;19.224;2023-05-10T10:13:08;1.67;1.67;1.67
76049;PMS7003;64967;50.234;19.224;2023-05-10T10:15:35;3.00;3.00;2.33
76049;PMS7003;64967;50.234;19.224;2023-05-10T10:18:02;2.67;2.67;2.67
76049;PMS7003;64967;50.234;19.224;2023-05-10T10:20:32;3.00;2.00;2.00
76049;PMS7003;64967;50.234;19.224;2023-05-10T10:22:59;0.67;0.67;0.67
76049;PMS7003;64967;50.234;19.224;2023-05-10T10:25:26;2.33;1.00;0.67
76049;PMS7003;64967;50.234;19.224;2023-05-10T10:30:41;1.67;1.67;1.00
76049;PMS7003;64967;50.234;19.224;2023-05-10T10:33:18;3.00;2.67;1.67
76049;PMS7003;64967;50.234;19.224;2023-05-10T10:36:06;3.67;2.67;2.67
76049;PMS7003;64967;50.234;19.224;2023-05-10T10:54:44;4.00;3.33;3.00
76049;PMS7003;64967;50.234;19.224;2023-05-10T10:57:17;4.00;3.67;3.00
76049;PMS7003;64967;50.234;19.224;2023-05-10T10:59:46;1.33;1.33;1.33
76049;PMS7003;64967;50.234;19.224;2023-05-10T11:02:32;2.67;1.33;1.33
76049;PMS7003;64967;50.234;19.224;2023-05-10T11:05:22;3.00;3.00;2.67
76049;PMS7003;64967;50.234;19.224;2023-05-10T11:10:20;3.67;3.00;3.00
76049;PMS7003;64967;50.234;19.224;2023-05-10T11:18:40;4.67;4.00;3.00
76049;PMS7003;64967;50.234;19.224;2023-05-10T11:21:08;4.33;4.00;3.67
76049;PMS7003;64967;50.234;19.224;2023-05-10T11:26:10;4.33;4.33;3.33
76049;PMS7003;64967;50.234;19.224;2023-05-10T11:28:42;4.67;4.67;4.00
76049;PMS7003;64967;50.234;19.224;2023-05-10T11:31:10;4.00;3.67;2.67
76049;PMS7003;64967;50.234;19.224;2023-05-10T11:33:44;2.67;2.67;2.33
76049;PMS7003;64967;50.234;19.224;2023-05-10T11:36:14;1.67;1.67;1.67
76049;PMS7003;64967;50.234;19.224;2023-05-10T11:38:45;3.33;2.33;2.33
76049;PMS7003;64967;50.234;19.224;2023-05-10T11:41:13;3.00;2.00;2.00
76049;PMS7003;64967;50.234;19.224;2023-05-10T11:43:40;4.00;4.00;3.33
76049;PMS7003;64967;50.234;19.224;2023-05-10T11:46:09;3.67;3.67;3.67
76049;PMS7003;64967;50.234;19.224;2023-05-10T11:48:39;4.00;3.00;2.00
76049;PMS7003;64967;50.234;19.224;2023-05-10T11:51:10;4.67;4.67;3.67
76049;PMS7003;64967;50.234;19.224;2023-05-10T11:53:37;3.00;3.00;2.67
76049;PMS7003;64967;50.234;19.224;2023-05-10T11:56:05;2.67;2.67;2.00
76049;PMS7003;64967;50.234;19.224;2023-05-10T11:58:34;2.67;2.67;2.33
76049;PMS7003;64967;50.234;19.224;2023-05-10T12:01:02;3.67;3.67;3.33
76049;PMS7003;64967;50.234;19.224;2023-05-10T12:03:30;4.00;4.00;3.33
76049;PMS7003;64967;50.234;19.224;2023-05-10T12:05:59;6.00;5.00;4.00
76049;PMS7003;64967;50.234;19.224;2023-05-10T12:08:28;3.00;2.00;2.00
76049;PMS7003;64967;50.234;19.224;2023-05-10T12:11:06;3.00;3.00;3.00
76049;PMS7003;64967;50.234;19.224;2023-05-10T12:13:40;3.33;2.00;2.00
76049;PMS7003;64967;50.234;19.224;2023-05-10T12:16:18;3.00;2.33;2.00
76049;PMS7003;64967;50.234;19.224;2023-05-10T12:18:50;4.00;3.00;3.00
76049;PMS7003;64967;50.234;19.224;2023-05-10T12:21:19;3.00;3.00;3.00
76049;PMS7003;64967;50.234;19.224;2023-05-10T12:23:50;3.00;3.00;3.00
76049;PMS7003;64967;50.234;19.224;2023-05-10T12:26:22;3.00;3.00;3.00
76049;PMS7003;64967;50.234;19.224;2023-05-10T12:28:51;3.67;3.67;2.67
76049;PMS7003;64967;50.234;19.224;2023-05-10T12:31:19;4.00;4.00;3.33
76049;PMS7003;64967;50.234;19.224;2023-05-10T12:33:46;3.67;3.67;3.33
76049;PMS7003;64967;50.234;19.224;2023-05-10T12:36:15;2.67;2.67;2.33
76049;PMS7003;64967;50.234;19.224;2023-05-10T12:38:45;2.00;1.00;1.00
76049;PMS7003;64967;50.234;19.224;2023-05-10T12:41:15;2.00;2.00;1.67
76049;PMS7003;64967;50.234;19.224;2023-05-10T12:43:44;3.67;2.67;2.67
76049;PMS7003;64967;50.234;19.224;2023-05-10T12:46:16;4.67;3.67;3.00
76049;PMS7003;64967;50.234;19.224;2023-05-10T12:48:44;3.00;3.00;3.00
76049;PMS7003;64967;50.234;19.224;2023-05-10T12:51:12;3.67;3.00;2.67
76049;PMS7003;64967;50.234;19.224;2023-05-10T12:53:42;3.00;3.00;2.00
76049;PMS7003;64967;50.234;19.224;2023-05-10T12:56:12;4.00;3.00;3.00
76049;PMS7003;64967;50.234;19.224;2023-05-10T12:58:39;3.00;3.00;3.00
76049;PMS7003;64967;50.234;19.224;2023-05-10T13:01:06;3.67;3.00;2.00
76049;PMS7003;64967;50.234;19.224;2023-05-10T13:03:33;2.33;2.33;2.00
76049;PMS7003;64967;50.234;19.224;2023-05-10T13:06:00;3.00;2.00;2.00
76049;PMS7003;64967;50.234;19.224;2023-05-10T13:08:27;2.00;2.00;2.00
76049;PMS7003;64967;50.234;19.224;2023-05-10T13:10:59;3.67;3.33;3.00
76049;PMS7003;64967;50.234;19.224;2023-05-10T13:13:26;1.33;1.33;1.00
76049;PMS7003;64967;50.234;19.224;2023-05-10T13:15:53;3.67;3.67;3.00
76049;PMS7003;64967;50.234;19.224;2023-05-10T13:18:20;2.67;2.67;2.00
76049;PMS7003;64967;50.234;19.224;2023-05-10T13:20:48;2.33;2.33;2.00
76049;PMS7003;64967;50.234;19.224;2023-05-10T13:23:16;3.00;3.00;2.00
76049;PMS7003;64967;50.234;19.224;2023-05-10T13:25:42;3.00;3.00;3.00
76049;PMS7003;64967;50.234;19.224;2023-05-10T13:28:09;2.67;2.67;2.00
76049;PMS7003;64967;50.234;19.224;2023-05-10T13:30:36;1.00;1.00;1.00
76049;PMS7003;64967;50.234;19.224;2023-05-10T13:33:03;2.00;2.00;1.33
76049;PMS7003;64967;50.234;19.224;2023-05-10T13:35:30;2.00;2.00;2.00
76049;PMS7003;64967;50.234;19.224;2023-05-10T13:37:57;3.00;3.00;3.00
76049;PMS7003;64967;50.234;19.224;2023-05-10T13:40:24;6.00;5.00;4.00
76049;PMS7003;64967;50.234;19.224;2023-05-10T13:42:51;4.00;4.00;3.33
76049;PMS7003;64967;50.234;19.224;2023-05-10T13:45:19;4.00;4.00;3.67
76049;PMS7003;64967;50.234;19.224;2023-05-10T13:47:46;4.67;4.67;4.00
76049;PMS7003;64967;50.234;19.224;2023-05-10T13:50:13;4.67;4.67;4.33
76049;PMS7003;64967;50.234;19.224;2023-05-10T13:52:40;4.00;3.67;3.00
76049;PMS7003;64967;50.234;19.224;2023-05-10T13:55:07;1.67;1.67;1.33
76049;PMS7003;64967;50.234;19.224;2023-05-10T13:57:34;1.67;1.67;1.67
76049;PMS7003;64967;50.234;19.224;2023-05-10T14:00:02;1.33;1.33;1.33
76049;PMS7003;64967;50.234;19.224;2023-05-10T14:02:29;2.67;2.67;1.67
76049;PMS7003;64967;50.234;19.224;2023-05-10T14:04:57;3.00;2.67;2.67
76049;PMS7003;64967;50.234;19.224;2023-05-10T14:07:24;3.67;3.00;2.67
76049;PMS7003;64967;50.234;19.224;2023-05-10T14:09:50;3.67;2.67;2.33
76049;PMS7003;64967;50.234;19.224;2023-05-10T14:12:17;3.00;2.67;2.67
76049;PMS7003;64967;50.234;19.224;2023-05-10T14:14:44;4.00;4.00;3.67
76049;PMS7003;64967;50.234;19.224;2023-05-10T14:17:11;4.67;3.67;3.33
76049;PMS7003;64967;50.234;19.224;2023-05-10T14:19:38;3.00;3.00;2.67
76049;PMS7003;64967;50.234;19.224;2023-05-10T14:22:05;5.00;4.33;3.67
76049;PMS7003;64967;50.234;19.224;2023-05-10T14:24:34;4.67;3.67;3.67
76049;PMS7003;64967;50.234;19.224;2023-05-10T14:27:00;6.00;6.00;5.00
76049;PMS7003;64967;50.234;19.224;2023-05-10T14:29:29;5.33;4.33;2.67
76049;PMS7003;64967;50.234;19.224;2023-05-10T14:31:56;4.00;3.67;3.67
76049;PMS7003;64967;50.234;19.224;2023-05-10T14:34:23;3.67;3.67;2.67
76049;PMS7003;64967;50.234;19.224;2023-05-10T14:36:49;3.00;3.00;3.00
76049;PMS7003;64967;50.234;19.224;2023-05-10T14:39:16;5.33;4.00;3.33
76049;PMS7003;64967;50.234;19.224;2023-05-10T14:41:43;3.67;2.33;2.33
76049;PMS7003;64967;50.234;19.224;2023-05-10T14:44:12;2.33;2.33;1.67
76049;PMS7003;64967;50.234;19.224;2023-05-10T14:46:39;3.67;3.67;2.67
76049;PMS7003;64967;50.234;19.224;2023-05-10T14:49:06;5.00;4.00;4.00
76049;PMS7003;64967;50.234;19.224;2023-05-10T14:51:33;3.00;2.67;2.67
76049;PMS7003;64967;50.234;19.224;2023-05-10T14:54:00;2.33;2.33;2.33
76049;PMS7003;64967;50.234;19.224;2023-05-10T14:56:27;3.00;2.67;2.67
76049;PMS7003;64967;50.234;19.224;2023-05-10T14:58:54;3.00;3.00;3.00
76049;PMS7003;64967;50.234;19.224;2023-05-10T15:01:22;2.33;1.67;1.67
76049;PMS7003;64967;50.234;19.224;2023-05-10T15:03:50;2.67;2.67;1.67
76049;PMS7003;64967;50.234;19.224;2023-05-10T15:06:22;2.67;2.67;2.67
76049;PMS7003;64967;50.234;19.224;2023-05-10T15:08:56;3.67;3.00;2.67
76049;PMS7003;64967;50.234;19.224;2023-05-10T15:11:23;3.00;3.00;2.00
76049;PMS7003;64967;50.234;19.224;2023-05-10T15:13:50;1.67;1.67;1.33